Time;durP1;ratioP1;P1;durP2;ratioP2;P2;SDS_P1;SDS_P2;PMS_P1;PMS_P2;Temp;Humidity;BMP_temperature;BMP_pressure;BME280_temperature;BME280_humidity;BME280_pressure;Samples;Min_cycle;Max_cycle;Signal;HPM_P1;HPM_P2
2022/06/04 00:00:13;;;;;;;1.88;1.70;;;;;;;;;;5017114;28;20678;-75
2022/06/04 00:02:42;;;;;;;2.80;1.70;;;;;;;;;;5002627;28;20232;-74
2022/06/04 00:05:08;;;;;;;1.92;1.77;;;;;;;;;;5010169;28;20260;-73
2022/06/04 00:07:38;;;;;;;1.65;1.55;;;;;;;;;;5017588;28;20221;-74
2022/06/04 00:15:49;;;;;;;2.57;1.90;;;;;;;;;;5019384;28;20647;-74
2022/06/04 00:18:15;;;;;;;2.37;1.83;;;;;;;;;;4999132;28;20220;-74
2022/06/04 00:20:42;;;;;;;3.70;2.00;;;;;;;;;;5016579;28;20223;-74
2022/06/04 00:23:10;;;;;;;2.30;1.90;;;;;;;;;;5015500;28;20295;-74
2022/06/04 00:25:41;;;;;;;3.00;2.10;;;;;;;;;;5020270;28;20307;-72
2022/06/04 00:28:09;;;;;;;2.07;1.90;;;;;;;;;;5018768;28;20254;-73
2022/06/04 00:30:35;;;;;;;2.25;1.95;;;;;;;;;;5018464;28;20244;-73
2022/06/04 00:33:03;;;;;;;1.80;1.70;;;;;;;;;;5012680;28;20764;-74
2022/06/04 00:35:31;;;;;;;4.40;2.03;;;;;;;;;;5011932;28;20236;-73
2022/06/04 00:37:57;;;;;;;2.20;2.00;;;;;;;;;;5005411;28;20224;-74
2022/06/04 00:40:45;;;;;;;2.83;1.90;;;;;;;;;;5018627;28;20234;-72
2022/06/04 00:43:11;;;;;;;2.77;1.70;;;;;;;;;;5009777;28;20247;-74
2022/06/04 00:45:36;;;;;;;2.73;1.90;;;;;;;;;;5020662;28;20722;-73
2022/06/04 00:48:06;;;;;;;2.10;1.63;;;;;;;;;;4995281;28;20304;-75
2022/06/04 00:50:32;;;;;;;2.47;1.90;;;;;;;;;;4994764;28;20220;-73
2022/06/04 00:53:00;;;;;;;3.10;1.80;;;;;;;;;;5016722;28;20229;-73
2022/06/04 00:55:43;;;;;;;1.87;1.77;;;;;;;;;;5025414;28;20222;-73
2022/06/04 00:58:14;;;;;;;1.80;1.70;;;;;;;;;;5018790;28;20228;-74
2022/06/04 01:00:53;;;;;;;2.13;1.70;;;;;;;;;;5022794;28;20307;-74
2022/06/04 01:03:30;;;;;;;2.00;1.70;;;;;;;;;;5000434;28;20579;-74
2022/06/04 01:06:01;;;;;;;2.27;1.83;;;;;;;;;;5012281;28;20228;-74
2022/06/04 01:08:40;;;;;;;1.90;1.73;;;;;;;;;;5015149;28;20233;-74
2022/06/04 01:11:10;;;;;;;2.00;1.90;;;;;;;;;;5022354;28;20223;-73
2022/06/04 01:13:54;;;;;;;2.37;1.83;;;;;;;;;;5012093;28;20235;-74
2022/06/04 01:16:20;;;;;;;1.80;1.70;;;;;;;;;;5022545;28;20230;-74
2022/06/04 01:18:55;;;;;;;2.60;1.80;;;;;;;;;;5014271;28;20220;-74
2022/06/04 01:21:43;;;;;;;3.03;1.93;;;;;;;;;;4994418;28;20566;-74
2022/06/04 01:24:17;;;;;;;2.70;2.37;;;;;;;;;;4998479;28;20225;-74
2022/06/04 01:26:52;;;;;;;2.87;2.23;;;;;;;;;;5020094;28;20227;-74
2022/06/04 01:29:20;;;;;;;2.40;2.17;;;;;;;;;;5018503;28;20744;-75
2022/06/04 01:32:01;;;;;;;2.57;2.37;;;;;;;;;;4986217;28;20391;-74
2022/06/04 01:34:34;;;;;;;2.80;2.07;;;;;;;;;;5017485;28;20308;-73
2022/06/04 01:37:22;;;;;;;2.53;2.23;;;;;;;;;;4984042;28;20273;-73
2022/06/04 01:42:39;;;;;;;5.87;2.27;;;;;;;;;;5002379;28;20233;-73
2022/06/04 01:45:08;;;;;;;2.73;2.10;;;;;;;;;;4985062;28;20229;-74
2022/06/04 01:47:36;;;;;;;3.33;2.07;;;;;;;;;;4985748;28;20785;-74
2022/06/04 01:50:03;;;;;;;3.47;2.00;;;;;;;;;;4976785;28;20263;-73
2022/06/04 01:52:33;;;;;;;2.40;2.20;;;;;;;;;;4977730;28;20239;-74
2022/06/04 01:55:06;;;;;;;2.10;1.90;;;;;;;;;;4983974;28;20596;-74
2022/06/04 01:57:46;;;;;;;7.50;2.40;;;;;;;;;;4999678;28;20220;-72
2022/06/04 02:00:34;;;;;;;2.40;2.20;;;;;;;;;;5008209;28;20597;-73
2022/06/04 02:03:31;;;;;;;2.20;2.10;;;;;;;;;;5006542;28;20703;-74
2022/06/04 02:06:00;;;;;;;2.93;2.20;;;;;;;;;;5006865;28;20256;-73
2022/06/04 02:08:30;;;;;;;2.60;2.40;;;;;;;;;;5000818;28;20225;-74
2022/06/04 02:11:01;;;;;;;2.33;2.13;;;;;;;;;;5004180;28;20220;-74
2022/06/04 02:13:31;;;;;;;2.60;2.40;;;;;;;;;;4997730;28;20307;-73
2022/06/04 02:16:10;;;;;;;2.87;2.30;;;;;;;;;;5002131;28;20220;-73
2022/06/04 02:18:40;;;;;;;2.70;2.50;;;;;;;;;;4996930;28;20235;-73
2022/06/04 02:21:06;;;;;;;2.70;2.50;;;;;;;;;;5011112;28;20224;-72
2022/06/04 02:23:34;;;;;;;2.90;2.60;;;;;;;;;;4981601;28;20589;-73
2022/06/04 02:26:04;;;;;;;3.13;2.53;;;;;;;;;;5021812;28;20712;-73
2022/06/04 02:28:30;;;;;;;4.30;2.87;;;;;;;;;;5001729;28;20315;-74
2022/06/04 02:31:04;;;;;;;3.30;3.00;;;;;;;;;;4998770;28;20790;-73
2022/06/04 02:33:45;;;;;;;3.97;2.90;;;;;;;;;;4992354;28;20585;-73
2022/06/04 02:36:43;;;;;;;4.03;3.17;;;;;;;;;;4996841;28;20233;-74
2022/06/04 02:39:25;;;;;;;3.90;3.50;;;;;;;;;;5011793;28;21073;-74
2022/06/04 02:42:00;;;;;;;4.00;3.60;;;;;;;;;;5007405;28;20258;-73
2022/06/04 02:44:53;;;;;;;5.87;3.43;;;;;;;;;;5000176;28;20233;-73
2022/06/04 02:47:51;;;;;;;5.40;3.80;;;;;;;;;;5010824;28;20225;-73
2022/06/04 02:50:48;;;;;;;4.83;3.90;;;;;;;;;;4993910;28;20239;-72
2022/06/04 02:53:16;;;;;;;6.60;3.90;;;;;;;;;;4992968;28;20230;-73
2022/06/04 02:55:54;;;;;;;5.60;4.70;;;;;;;;;;5017919;28;20220;-73
2022/06/04 02:58:24;;;;;;;4.93;4.33;;;;;;;;;;4984797;28;20214;-74
2022/06/04 03:00:52;;;;;;;5.40;4.47;;;;;;;;;;5000980;28;20309;-73
2022/06/04 03:03:20;;;;;;;5.10;4.60;;;;;;;;;;4964863;28;20603;-73
2022/06/04 03:06:05;;;;;;;4.77;4.30;;;;;;;;;;4978228;28;20228;-73
2022/06/04 03:08:34;;;;;;;5.40;4.90;;;;;;;;;;4978413;28;20315;-73
2022/06/04 03:10:59;;;;;;;4.67;4.27;;;;;;;;;;4984900;28;20220;-73
2022/06/04 03:13:27;;;;;;;6.63;5.10;;;;;;;;;;4999109;28;20286;-74
2022/06/04 03:15:57;;;;;;;5.67;5.17;;;;;;;;;;4984344;28;20249;-73
2022/06/04 03:18:23;;;;;;;5.70;5.20;;;;;;;;;;5019168;28;20285;-73
2022/06/04 03:20:50;;;;;;;6.73;5.40;;;;;;;;;;5000383;28;20698;-73
2022/06/04 03:23:16;;;;;;;6.33;5.50;;;;;;;;;;4987720;28;20229;-73
2022/06/04 03:25:44;;;;;;;5.87;5.07;;;;;;;;;;5011676;28;20231;-73
2022/06/04 03:28:17;;;;;;;5.53;4.97;;;;;;;;;;5015934;28;20228;-72
2022/06/04 03:30:42;;;;;;;6.23;5.00;;;;;;;;;;4980223;28;20251;-73
2022/06/04 03:33:08;;;;;;;6.83;5.13;;;;;;;;;;5019637;28;20223;-72
2022/06/04 03:35:34;;;;;;;5.87;5.37;;;;;;;;;;5010574;28;20612;-74
2022/06/04 03:37:59;;;;;;;6.00;5.50;;;;;;;;;;4982859;28;20700;-74
2022/06/04 03:40:25;;;;;;;6.77;5.47;;;;;;;;;;4978865;28;20221;-74
2022/06/04 03:42:50;;;;;;;5.87;5.00;;;;;;;;;;4999423;28;20235;-74
2022/06/04 03:45:16;;;;;;;5.40;5.00;;;;;;;;;;5015784;28;20217;-73
2022/06/04 03:47:42;;;;;;;5.77;5.20;;;;;;;;;;4997571;28;20216;-75
2022/06/04 03:50:15;;;;;;;5.87;5.07;;;;;;;;;;4991579;28;20217;-72
2022/06/04 03:53:11;;;;;;;7.07;5.10;;;;;;;;;;4964488;28;20228;-71
2022/06/04 03:55:38;;;;;;;5.60;5.10;;;;;;;;;;4973404;28;20240;-72
2022/06/04 03:58:04;;;;;;;7.33;5.33;;;;;;;;;;4964706;28;20225;-75
2022/06/04 04:00:36;;;;;;;5.73;5.20;;;;;;;;;;4970723;28;20260;-72
2022/06/04 04:03:04;;;;;;;6.60;5.00;;;;;;;;;;4964534;28;20627;-73
2022/06/04 04:05:35;;;;;;;6.13;5.07;;;;;;;;;;4969548;28;20213;-72
2022/06/04 04:08:05;;;;;;;6.43;5.33;;;;;;;;;;4957166;28;20245;-74
2022/06/04 04:10:31;;;;;;;5.70;5.20;;;;;;;;;;4959476;28;20216;-73
2022/06/04 04:12:57;;;;;;;6.90;5.80;;;;;;;;;;4956929;28;20845;-72
2022/06/04 04:15:24;;;;;;;7.03;6.33;;;;;;;;;;4979701;28;20593;-73
2022/06/04 04:17:50;;;;;;;6.83;6.20;;;;;;;;;;4995123;28;20227;-73
2022/06/04 04:20:26;;;;;;;6.63;5.93;;;;;;;;;;4981073;28;20227;-73
2022/06/04 04:22:56;;;;;;;6.97;6.03;;;;;;;;;;4976895;28;20224;-73
2022/06/04 04:25:26;;;;;;;7.57;6.17;;;;;;;;;;4966014;28;20430;-73
2022/06/04 04:27:53;;;;;;;8.20;6.50;;;;;;;;;;4987871;28;20220;-75
2022/06/04 04:30:21;;;;;;;7.90;6.60;;;;;;;;;;4989410;28;20577;-73
2022/06/04 04:32:50;;;;;;;7.70;6.70;;;;;;;;;;4965497;28;20233;-73
2022/06/04 04:35:21;;;;;;;10.03;7.07;;;;;;;;;;4979912;28;20223;-72
2022/06/04 04:37:47;;;;;;;8.03;7.00;;;;;;;;;;4962775;28;20324;-73
2022/06/04 04:40:15;;;;;;;11.70;6.83;;;;;;;;;;4965282;28;20216;-73
2022/06/04 04:42:42;;;;;;;7.87;6.77;;;;;;;;;;5005840;28;20738;-71
2022/06/04 04:45:08;;;;;;;7.13;6.30;;;;;;;;;;4984926;28;20714;-73
2022/06/04 04:47:58;;;;;;;9.53;6.73;;;;;;;;;;4986247;28;20291;-73
2022/06/04 04:50:30;;;;;;;9.67;6.83;;;;;;;;;;4979821;28;20715;-73
2022/06/04 04:52:57;;;;;;;9.17;6.57;;;;;;;;;;4974718;28;20225;-73
2022/06/04 04:55:24;;;;;;;8.43;7.63;;;;;;;;;;4950696;28;20240;-73
2022/06/04 04:57:50;;;;;;;8.70;7.13;;;;;;;;;;4982946;28;20817;-73
2022/06/04 05:00:17;;;;;;;7.87;7.07;;;;;;;;;;4974538;28;20217;-73
2022/06/04 05:02:43;;;;;;;11.37;7.27;;;;;;;;;;4984327;28;20255;-73
2022/06/04 05:05:11;;;;;;;9.60;7.40;;;;;;;;;;4964007;28;20781;-72
2022/06/04 05:07:38;;;;;;;8.63;6.70;;;;;;;;;;4976410;28;20752;-72
2022/06/04 05:10:05;;;;;;;7.27;6.43;;;;;;;;;;4992320;28;20231;-73
2022/06/04 05:12:32;;;;;;;9.10;7.60;;;;;;;;;;4968836;28;20264;-74
2022/06/04 05:14:58;;;;;;;7.50;6.70;;;;;;;;;;4975007;28;20252;-73
2022/06/04 05:17:27;;;;;;;7.63;6.63;;;;;;;;;;4980335;28;20228;-73
2022/06/04 05:19:53;;;;;;;9.43;6.97;;;;;;;;;;4986422;28;20224;-73
2022/06/04 05:22:19;;;;;;;10.47;7.33;;;;;;;;;;4981532;28;20324;-73
2022/06/04 05:24:45;;;;;;;7.75;7.05;;;;;;;;;;4998688;28;20232;-74
2022/06/04 05:27:14;;;;;;;7.93;7.13;;;;;;;;;;4986141;28;20296;-72
2022/06/04 05:29:40;;;;;;;7.60;6.80;;;;;;;;;;5004228;28;20260;-74
2022/06/04 05:32:09;;;;;;;8.38;7.43;;;;;;;;;;4986432;28;20228;-73
2022/06/04 05:34:36;;;;;;;9.43;7.03;;;;;;;;;;4978454;28;20220;-74
2022/06/04 05:37:05;;;;;;;8.05;7.25;;;;;;;;;;5000378;28;20224;-74
2022/06/04 05:39:31;;;;;;;9.20;7.03;;;;;;;;;;4988702;28;20224;-73
2022/06/04 05:42:02;;;;;;;7.47;6.50;;;;;;;;;;4987337;28;20224;-72
2022/06/04 05:44:43;;;;;;;7.57;6.68;;;;;;;;;;5008785;28;20244;-72
2022/06/04 05:47:09;;;;;;;9.07;7.03;;;;;;;;;;4995932;28;20224;-73
2022/06/04 05:49:35;;;;;;;6.85;6.15;;;;;;;;;;4986026;28;20718;-73
2022/06/04 05:52:02;;;;;;;7.63;6.82;;;;;;;;;;4978971;28;20748;-73
2022/06/04 05:54:28;;;;;;;6.95;6.30;;;;;;;;;;4991803;28;20222;-73
2022/06/04 05:56:56;;;;;;;7.80;6.20;;;;;;;;;;5004590;28;20223;-73
2022/06/04 05:59:23;;;;;;;8.13;6.07;;;;;;;;;;4977198;28;20233;-73
2022/06/04 06:01:49;;;;;;;8.15;6.18;;;;;;;;;;4983862;28;20583;-74
2022/06/04 06:04:16;;;;;;;7.80;5.88;;;;;;;;;;4998753;28;20703;-73
2022/06/04 06:06:45;;;;;;;6.95;6.15;;;;;;;;;;5012461;28;20337;-74
2022/06/04 06:09:16;;;;;;;6.88;5.85;;;;;;;;;;4967792;28;20245;-73
2022/06/04 06:11:42;;;;;;;7.75;5.90;;;;;;;;;;4978463;28;20216;-73
2022/06/04 06:14:08;;;;;;;6.93;6.28;;;;;;;;;;5019037;28;20593;-73
2022/06/04 06:16:35;;;;;;;7.18;6.03;;;;;;;;;;4993635;28;20765;-74
2022/06/04 06:19:03;;;;;;;8.05;6.25;;;;;;;;;;5003258;28;20725;-73
2022/06/04 06:21:31;;;;;;;9.50;6.90;;;;;;;;;;4997953;28;20762;-73
2022/06/04 06:23:57;;;;;;;9.50;7.15;;;;;;;;;;4993745;28;20216;-72
2022/06/04 06:26:31;;;;;;;8.30;6.60;;;;;;;;;;4979793;28;20231;-74
2022/06/04 06:28:59;;;;;;;10.23;6.97;;;;;;;;;;4979699;28;20265;-73
2022/06/04 06:31:26;;;;;;;9.02;7.03;;;;;;;;;;5000561;28;20681;-73
2022/06/04 06:33:53;;;;;;;8.32;7.13;;;;;;;;;;4981269;28;20346;-74
2022/06/04 06:36:20;;;;;;;7.53;6.57;;;;;;;;;;4989200;28;20227;-74
2022/06/04 06:38:49;;;;;;;9.73;6.68;;;;;;;;;;5009790;28;20232;-73
2022/06/04 06:41:16;;;;;;;10.32;7.35;;;;;;;;;;4969913;28;20225;-73
2022/06/04 06:43:49;;;;;;;9.93;7.18;;;;;;;;;;5001304;28;20240;-73
2022/06/04 06:46:24;;;;;;;7.93;6.80;;;;;;;;;;5017937;28;20234;-73
2022/06/04 06:48:55;;;;;;;11.23;6.80;;;;;;;;;;4996758;28;20315;-74
2022/06/04 06:51:28;;;;;;;9.63;6.95;;;;;;;;;;4997510;28;20223;-73
2022/06/04 06:54:00;;;;;;;9.88;6.80;;;;;;;;;;4980624;28;20233;-74
2022/06/04 06:56:31;;;;;;;8.65;7.13;;;;;;;;;;4974654;28;20601;-74
2022/06/04 06:58:57;;;;;;;12.10;6.93;;;;;;;;;;5014366;28;20237;-74
2022/06/04 07:01:25;;;;;;;11.57;6.78;;;;;;;;;;4983662;28;20236;-73
2022/06/04 07:03:51;;;;;;;7.68;6.22;;;;;;;;;;5000777;28;20617;-73
2022/06/04 07:06:31;;;;;;;8.57;6.07;;;;;;;;;;4976043;28;20220;-74
2022/06/04 07:08:57;;;;;;;6.68;5.93;;;;;;;;;;5008434;28;20741;-73
2022/06/04 07:11:23;;;;;;;9.30;6.10;;;;;;;;;;4978859;28;20312;-73
2022/06/04 07:13:49;;;;;;;9.05;5.80;;;;;;;;;;4975951;28;20868;-74
2022/06/04 07:16:15;;;;;;;7.03;5.50;;;;;;;;;;5012018;28;20295;-74
2022/06/04 07:18:41;;;;;;;8.77;5.57;;;;;;;;;;4946031;28;20239;-74
2022/06/04 07:21:10;;;;;;;8.85;5.05;;;;;;;;;;4980291;28;20228;-75
2022/06/04 07:23:38;;;;;;;6.45;4.78;;;;;;;;;;4992328;28;20702;-74
2022/06/04 07:26:07;;;;;;;6.10;5.10;;;;;;;;;;4947882;28;20228;-75
2022/06/04 07:28:40;;;;;;;7.60;5.07;;;;;;;;;;4980237;28;20279;-74
2022/06/04 07:37:45;;;;;;;9.35;4.30;;;;;;;;;;5008911;28;20227;-74
2022/06/04 07:40:12;;;;;;;5.85;4.47;;;;;;;;;;4967267;28;20216;-75
2022/06/04 07:42:45;;;;;;;5.70;4.00;;;;;;;;;;4989065;28;20263;-75
2022/06/04 07:45:12;;;;;;;5.72;4.05;;;;;;;;;;4978501;28;20222;-75
2022/06/04 07:47:40;;;;;;;5.45;4.00;;;;;;;;;;4981676;28;20232;-74
2022/06/04 07:50:08;;;;;;;5.68;3.80;;;;;;;;;;4991362;28;20229;-75
2022/06/04 07:52:37;;;;;;;4.47;3.75;;;;;;;;;;4969562;28;20304;-74
2022/06/04 07:55:09;;;;;;;5.00;3.63;;;;;;;;;;4969423;28;20674;-74
2022/06/04 07:57:36;;;;;;;5.15;3.70;;;;;;;;;;4976091;28;20225;-74
2022/06/04 08:00:04;;;;;;;6.03;3.72;;;;;;;;;;5003251;28;20235;-74
2022/06/04 08:02:38;;;;;;;5.57;3.97;;;;;;;;;;4994731;28;20239;-73
2022/06/04 08:05:04;;;;;;;6.35;3.80;;;;;;;;;;4969461;28;20248;-74
2022/06/04 08:07:31;;;;;;;5.22;3.90;;;;;;;;;;4981451;28;20247;-73
2022/06/04 08:09:57;;;;;;;5.50;3.80;;;;;;;;;;4959137;28;20316;-75
2022/06/04 08:12:29;;;;;;;6.18;3.60;;;;;;;;;;4972408;28;20232;-74
2022/06/04 08:14:58;;;;;;;5.93;3.50;;;;;;;;;;4979840;28;20267;-72
2022/06/04 08:17:25;;;;;;;5.93;3.70;;;;;;;;;;4982466;28;20223;-75
2022/06/04 08:19:51;;;;;;;6.10;4.10;;;;;;;;;;4977252;28;20274;-75
2022/06/04 08:22:17;;;;;;;4.30;3.35;;;;;;;;;;4990890;28;20225;-73
2022/06/04 08:24:43;;;;;;;5.45;3.97;;;;;;;;;;4990171;28;20687;-72
2022/06/04 08:27:09;;;;;;;4.07;3.58;;;;;;;;;;4960093;28;20702;-73
2022/06/04 08:29:37;;;;;;;4.72;4.00;;;;;;;;;;4976565;28;20632;-73
2022/06/04 08:32:04;;;;;;;6.47;3.60;;;;;;;;;;4986604;28;20633;-72
2022/06/04 08:34:31;;;;;;;4.80;3.55;;;;;;;;;;4979869;28;20283;-73
2022/06/04 08:36:58;;;;;;;5.10;3.58;;;;;;;;;;4963426;28;20229;-73
2022/06/04 08:39:24;;;;;;;4.45;3.00;;;;;;;;;;4966809;28;20228;-74
2022/06/04 08:42:09;;;;;;;4.22;3.08;;;;;;;;;;4964681;28;20848;-74
2022/06/04 08:44:50;;;;;;;3.13;2.83;;;;;;;;;;4971952;28;20252;-73
2022/06/04 08:47:21;;;;;;;4.47;3.25;;;;;;;;;;4982865;28;20225;-73
2022/06/04 08:49:53;;;;;;;3.70;2.80;;;;;;;;;;4997125;28;20591;-73
2022/06/04 08:52:23;;;;;;;3.47;2.80;;;;;;;;;;4977036;28;20222;-73
2022/06/04 08:58:05;;;;;;;3.88;2.60;;;;;;;;;;4998235;28;20227;-73
2022/06/04 09:00:52;;;;;;;6.00;2.78;;;;;;;;;;4994699;28;20221;-73
2022/06/04 09:03:39;;;;;;;4.75;2.80;;;;;;;;;;4994573;28;20217;-72
2022/06/04 09:06:24;;;;;;;3.17;2.30;;;;;;;;;;5002858;28;20233;-72
2022/06/04 09:09:03;;;;;;;3.47;2.53;;;;;;;;;;5013118;28;20666;-73
2022/06/04 09:11:49;;;;;;;3.65;2.70;;;;;;;;;;4975166;28;20227;-74
2022/06/04 09:14:32;;;;;;;2.90;2.60;;;;;;;;;;5005782;28;20672;-74
2022/06/04 09:17:04;;;;;;;3.97;2.10;;;;;;;;;;5009632;28;20224;-72
2022/06/04 09:19:35;;;;;;;3.17;2.03;;;;;;;;;;4984342;28;20713;-73
2022/06/04 09:22:03;;;;;;;3.80;2.25;;;;;;;;;;4983511;28;20235;-73
2022/06/04 09:24:30;;;;;;;2.53;2.15;;;;;;;;;;4982274;28;20220;-74
2022/06/04 09:27:43;;;;;;;3.45;2.40;;;;;;;;;;4964424;28;20235;-73
2022/06/04 09:30:32;;;;;;;5.43;2.65;;;;;;;;;;4988891;28;20232;-74
2022/06/04 09:33:43;;;;;;;3.58;2.20;;;;;;;;;;4975428;28;20228;-74
2022/06/04 09:36:12;;;;;;;3.83;2.97;;;;;;;;;;4935693;28;20238;-74
2022/06/04 09:38:51;;;;;;;2.88;2.63;;;;;;;;;;4936430;28;20230;-74
2022/06/04 09:41:21;;;;;;;3.10;2.35;;;;;;;;;;4959258;28;20237;-74
2022/06/04 09:44:27;;;;;;;3.72;2.10;;;;;;;;;;4953231;28;20308;-74
2022/06/04 09:47:34;;;;;;;3.80;2.80;;;;;;;;;;4966769;28;20257;-73
2022/06/04 09:50:02;;;;;;;3.28;2.60;;;;;;;;;;4989253;28;20611;-76
2022/06/04 09:52:43;;;;;;;5.07;3.13;;;;;;;;;;4969709;28;20230;-74
2022/06/04 09:55:15;;;;;;;3.33;2.90;;;;;;;;;;4985905;28;20225;-75
2022/06/04 09:57:41;;;;;;;6.03;3.17;;;;;;;;;;4984985;28;20229;-75
2022/06/04 10:00:29;;;;;;;4.72;3.10;;;;;;;;;;4987625;28;20221;-74
2022/06/04 10:03:00;;;;;;;4.47;3.17;;;;;;;;;;4975128;28;20251;-75
2022/06/04 10:05:28;;;;;;;3.45;3.15;;;;;;;;;;4973204;28;20217;-75
2022/06/04 10:07:56;;;;;;;3.70;3.00;;;;;;;;;;4981277;28;20214;-74
2022/06/04 10:10:35;;;;;;;3.30;3.00;;;;;;;;;;4968955;28;20237;-75
2022/06/04 10:16:02;;;;;;;5.35;3.35;;;;;;;;;;4983043;28;20304;-75
2022/06/04 10:18:38;;;;;;;3.22;2.92;;;;;;;;;;4960886;28;20609;-77
2022/06/04 10:21:18;;;;;;;3.92;2.95;;;;;;;;;;4962800;28;20221;-75
2022/06/04 10:23:57;;;;;;;5.10;3.25;;;;;;;;;;4989535;28;20229;-74
2022/06/04 10:26:50;;;;;;;4.93;2.92;;;;;;;;;;4992818;28;20228;-75
2022/06/04 10:29:41;;;;;;;5.35;3.20;;;;;;;;;;4965740;28;20231;-74
2022/06/04 10:32:10;;;;;;;5.32;3.00;;;;;;;;;;4962645;28;20665;-75
2022/06/04 10:34:47;;;;;;;4.75;2.92;;;;;;;;;;4992433;28;20272;-74
2022/06/04 10:37:31;;;;;;;5.80;3.60;;;;;;;;;;5017122;28;20223;-73
2022/06/04 10:40:25;;;;;;;4.95;3.45;;;;;;;;;;4993908;28;20677;-75
2022/06/04 10:43:26;;;;;;;3.38;2.80;;;;;;;;;;5003676;28;20232;-75
2022/06/04 10:46:14;;;;;;;7.28;3.20;;;;;;;;;;4998826;28;20632;-75
2022/06/04 10:49:01;;;;;;;3.95;2.80;;;;;;;;;;4981097;28;20256;-74
2022/06/04 10:52:00;;;;;;;4.90;3.47;;;;;;;;;;5007809;28;20683;-74
2022/06/04 10:54:47;;;;;;;4.78;3.00;;;;;;;;;;4990105;28;20697;-76
2022/06/04 10:57:33;;;;;;;5.13;3.55;;;;;;;;;;4990369;28;20598;-74
2022/06/04 11:00:18;;;;;;;3.70;3.20;;;;;;;;;;4991377;28;20926;-75
2022/06/04 11:03:06;;;;;;;5.32;2.80;;;;;;;;;;4991205;28;20232;-76
2022/06/04 11:05:53;;;;;;;3.55;3.25;;;;;;;;;;4991755;28;20718;-75
2022/06/04 11:08:28;;;;;;;3.20;2.90;;;;;;;;;;4983108;28;20271;-75
2022/06/04 11:11:03;;;;;;;7.05;3.10;;;;;;;;;;5005024;28;20685;-74
2022/06/04 11:13:29;;;;;;;3.70;2.60;;;;;;;;;;4989943;28;20225;-75
2022/06/04 11:16:10;;;;;;;3.10;2.75;;;;;;;;;;4998199;28;20286;-73
2022/06/04 11:18:50;;;;;;;2.63;2.42;;;;;;;;;;5010001;28;20315;-75
2022/06/04 11:21:27;;;;;;;3.50;2.60;;;;;;;;;;4957079;28;20221;-76
2022/06/04 11:24:00;;;;;;;3.90;2.65;;;;;;;;;;5008102;28;20236;-74
2022/06/04 11:26:51;;;;;;;3.75;2.65;;;;;;;;;;4983165;28;20602;-75
2022/06/04 11:29:20;;;;;;;3.28;2.53;;;;;;;;;;4981336;28;20669;-73
2022/06/04 11:32:07;;;;;;;2.55;2.10;;;;;;;;;;4981192;28;20236;-72
2022/06/04 11:34:54;;;;;;;3.05;1.95;;;;;;;;;;4990305;28;20217;-75
2022/06/04 11:37:20;;;;;;;2.63;1.75;;;;;;;;;;4993358;28;20209;-73
2022/06/04 11:40:11;;;;;;;2.63;2.00;;;;;;;;;;5002063;28;20231;-74
2022/06/04 11:42:52;;;;;;;2.70;1.90;;;;;;;;;;4987853;28;20225;-75
2022/06/04 11:45:36;;;;;;;5.72;2.10;;;;;;;;;;5013095;28;20251;-75
2022/06/04 11:48:13;;;;;;;2.13;1.92;;;;;;;;;;5009167;28;20224;-73
2022/06/04 11:50:45;;;;;;;3.20;2.20;;;;;;;;;;4977248;28;20236;-74
2022/06/04 11:53:43;;;;;;;2.83;2.40;;;;;;;;;;4969178;28;20223;-74
2022/06/04 11:56:41;;;;;;;2.70;2.03;;;;;;;;;;4981791;28;20724;-74
2022/06/04 11:59:30;;;;;;;2.33;2.13;;;;;;;;;;5003560;28;20225;-73
2022/06/04 12:02:17;;;;;;;3.72;2.08;;;;;;;;;;4985322;28;20229;-74
2022/06/04 12:04:45;;;;;;;2.17;1.80;;;;;;;;;;5004237;28;20234;-75
2022/06/04 12:07:20;;;;;;;2.47;2.00;;;;;;;;;;4966356;28;20232;-74
2022/06/04 12:09:56;;;;;;;2.20;2.00;;;;;;;;;;4972878;28;20658;-74
2022/06/04 12:12:26;;;;;;;2.15;1.92;;;;;;;;;;4992869;28;20994;-75
2022/06/04 12:14:59;;;;;;;2.42;1.90;;;;;;;;;;4991346;28;20315;-74
2022/06/04 12:17:29;;;;;;;2.63;2.00;;;;;;;;;;4978809;28;20217;-74
2022/06/04 12:26:27;;;;;;;2.53;1.83;;;;;;;;;;4994251;28;20229;-72
2022/06/04 12:28:57;;;;;;;2.35;1.95;;;;;;;;;;4972525;28;20312;-77
2022/06/04 12:31:38;;;;;;;1.88;1.67;;;;;;;;;;4996048;28;20247;-74
2022/06/04 12:34:20;;;;;;;3.78;1.85;;;;;;;;;;4985479;28;20225;-74
2022/06/04 12:36:49;;;;;;;3.20;1.95;;;;;;;;;;4984621;28;20221;-73
2022/06/04 12:39:27;;;;;;;2.22;1.98;;;;;;;;;;4951793;28;20232;-76
2022/06/04 12:41:55;;;;;;;2.08;1.88;;;;;;;;;;5007265;28;20239;-74
2022/06/04 12:44:25;;;;;;;2.13;1.90;;;;;;;;;;4973806;28;20248;-75
2022/06/04 12:46:52;;;;;;;2.40;1.80;;;;;;;;;;5007822;28;20259;-75
2022/06/04 12:49:53;;;;;;;3.50;2.00;;;;;;;;;;4974192;28;20233;-74
2022/06/04 12:52:22;;;;;;;1.92;1.60;;;;;;;;;;4940877;28;20292;-75
2022/06/04 12:54:53;;;;;;;2.40;1.95;;;;;;;;;;4984565;28;20247;-74
2022/06/04 12:57:32;;;;;;;2.00;1.90;;;;;;;;;;5011310;28;20216;-74
2022/06/04 13:00:18;;;;;;;1.95;1.80;;;;;;;;;;5012536;28;20229;-73
2022/06/04 13:03:14;;;;;;;2.55;1.63;;;;;;;;;;4997075;28;20319;-75
2022/06/04 13:06:03;;;;;;;2.28;2.08;;;;;;;;;;4974688;28;20226;-75
2022/06/04 13:08:38;;;;;;;2.35;1.98;;;;;;;;;;4995261;28;20707;-74
2022/06/04 13:11:19;;;;;;;2.20;2.00;;;;;;;;;;4989110;28;20228;-74
2022/06/04 13:14:16;;;;;;;3.83;2.00;;;;;;;;;;5009870;28;20654;-74
2022/06/04 13:16:56;;;;;;;2.50;2.08;;;;;;;;;;4983310;28;20418;-76
2022/06/04 13:19:44;;;;;;;3.35;2.67;;;;;;;;;;4965453;28;22006;-74
2022/06/04 13:22:21;;;;;;;3.28;2.17;;;;;;;;;;4982942;28;20772;-74
2022/06/04 13:24:50;;;;;;;2.28;2.08;;;;;;;;;;4973049;28;20234;-77
2022/06/04 13:27:18;;;;;;;2.28;2.08;;;;;;;;;;4972201;28;20216;-75
2022/06/04 13:29:54;;;;;;;2.85;2.03;;;;;;;;;;4982331;28;20300;-74
2022/06/04 13:32:21;;;;;;;2.85;2.10;;;;;;;;;;5005155;28;20228;-75
2022/06/04 13:34:49;;;;;;;2.40;2.20;;;;;;;;;;4966066;28;20340;-74
2022/06/04 13:37:22;;;;;;;4.85;2.25;;;;;;;;;;4978084;28;20217;-73
2022/06/04 13:39:49;;;;;;;3.08;2.05;;;;;;;;;;4991045;28;20315;-75
2022/06/04 13:42:32;;;;;;;2.40;1.90;;;;;;;;;;4976945;28;20604;-75
2022/06/04 13:45:19;;;;;;;2.63;2.28;;;;;;;;;;4977327;28;20228;-75
2022/06/04 13:47:57;;;;;;;2.08;1.88;;;;;;;;;;5022915;28;20217;-74
2022/06/04 13:50:34;;;;;;;2.17;1.98;;;;;;;;;;4987348;28;20223;-75
2022/06/04 13:53:14;;;;;;;3.72;1.90;;;;;;;;;;4985442;28;20225;-73
2022/06/04 13:55:47;;;;;;;3.28;1.83;;;;;;;;;;5002662;28;20221;-74
2022/06/04 13:58:16;;;;;;;1.92;1.80;;;;;;;;;;4964747;28;20231;-76
2022/06/04 14:00:47;;;;;;;3.38;1.70;;;;;;;;;;5002788;28;20228;-73
2022/06/04 14:03:36;;;;;;;2.15;1.88;;;;;;;;;;4972057;28;20235;-76
2022/06/04 14:06:02;;;;;;;2.83;2.10;;;;;;;;;;4974986;28;20722;-75
2022/06/04 14:08:33;;;;;;;4.18;2.00;;;;;;;;;;4984141;28;20271;-74
2022/06/04 14:11:32;;;;;;;2.60;1.80;;;;;;;;;;4961510;28;20225;-75
2022/06/04 14:14:15;;;;;;;2.05;1.73;;;;;;;;;;4997704;28;20244;-76
2022/06/04 14:16:56;;;;;;;2.20;1.67;;;;;;;;;;4967171;28;20223;-75
2022/06/04 14:19:32;;;;;;;1.67;1.58;;;;;;;;;;4987501;28;20235;-75
2022/06/04 14:22:04;;;;;;;2.35;1.60;;;;;;;;;;5009169;28;20737;-77
2022/06/04 14:24:38;;;;;;;1.85;1.65;;;;;;;;;;4987594;28;20296;-74
2022/06/04 14:27:31;;;;;;;1.92;1.77;;;;;;;;;;4983858;28;20217;-75
2022/06/04 14:30:12;;;;;;;2.60;1.73;;;;;;;;;;5004624;28;20226;-76
2022/06/04 14:32:46;;;;;;;2.72;1.88;;;;;;;;;;4993715;28;20228;-74
2022/06/04 14:35:14;;;;;;;2.72;2.00;;;;;;;;;;5000111;28;20220;-76
2022/06/04 14:37:48;;;;;;;2.25;1.98;;;;;;;;;;4984800;28;20213;-74
2022/06/04 14:40:15;;;;;;;2.17;1.60;;;;;;;;;;4951487;28;20223;-75
2022/06/04 14:43:22;;;;;;;2.60;1.70;;;;;;;;;;4961654;28;20229;-76
2022/06/04 14:46:00;;;;;;;2.83;1.65;;;;;;;;;;4986217;28;20213;-74
2022/06/04 14:48:32;;;;;;;1.75;1.65;;;;;;;;;;4996176;28;20593;-75
2022/06/04 14:51:24;;;;;;;2.78;1.65;;;;;;;;;;5006999;28;21024;-74
2022/06/04 14:53:52;;;;;;;2.55;1.60;;;;;;;;;;5005971;28;20216;-75
2022/06/04 14:56:46;;;;;;;1.85;1.60;;;;;;;;;;4988680;28;20274;-75
2022/06/04 14:59:38;;;;;;;2.08;1.60;;;;;;;;;;4990469;28;20219;-76
2022/06/04 15:02:32;;;;;;;2.50;1.70;;;;;;;;;;5006440;28;20705;-77
2022/06/04 15:05:07;;;;;;;2.03;1.60;;;;;;;;;;5002186;28;20752;-75
2022/06/04 15:08:05;;;;;;;1.80;1.63;;;;;;;;;;5002249;28;20228;-73
2022/06/04 15:10:43;;;;;;;1.77;1.58;;;;;;;;;;4982294;28;20266;-80
2022/06/04 15:13:33;;;;;;;1.83;1.50;;;;;;;;;;4974763;28;20286;-74
2022/06/04 15:16:05;;;;;;;3.10;1.77;;;;;;;;;;4993102;28;20224;-74
2022/06/04 15:18:31;;;;;;;1.67;1.58;;;;;;;;;;4977471;28;20300;-75
2022/06/04 15:21:20;;;;;;;3.42;1.63;;;;;;;;;;5000006;28;21124;-74
2022/06/04 15:24:44;;;;;;;1.83;1.63;;;;;;;;;;4978626;28;20233;-74
2022/06/04 15:27:17;;;;;;;2.17;1.35;;;;;;;;;;4929693;28;20225;-73
2022/06/04 15:35:30;;;;;;;2.67;1.58;;;;;;;;;;4977410;28;20310;-75
2022/06/04 15:38:07;;;;;;;1.77;1.60;;;;;;;;;;4969444;28;20225;-77
2022/06/04 15:41:03;;;;;;;1.80;1.45;;;;;;;;;;4979764;28;20229;-76
2022/06/04 15:43:33;;;;;;;2.30;1.63;;;;;;;;;;4976289;28;20260;-75
2022/06/04 15:46:19;;;;;;;1.40;1.30;;;;;;;;;;4987697;28;20221;-76
2022/06/04 15:48:53;;;;;;;2.30;1.35;;;;;;;;;;5000432;28;20233;-75
2022/06/04 15:57:28;;;;;;;3.40;1.50;;;;;;;;;;4981314;28;20212;-74
2022/06/04 15:59:58;;;;;;;1.40;1.30;;;;;;;;;;5005823;28;20299;-73
2022/06/04 16:06:24;;;;;;;1.70;1.60;;;;;;;;;;4946104;28;20232;-74
2022/06/04 16:09:04;;;;;;;2.05;1.38;;;;;;;;;;4980399;28;20630;-72